createdAt,value
2023-04-28T04:01:39.754Z,13.40
2023-04-28T04:04:07.798Z,13.20
2023-04-28T04:06:35.995Z,13.10
2023-04-28T04:09:03.883Z,13.20
2023-04-28T04:11:31.695Z,13.20
2023-04-28T04:13:59.456Z,13.20
2023-04-28T04:16:27.423Z,13.30
2023-04-28T04:18:56.859Z,13.20
2023-04-28T04:21:24.654Z,13.20
2023-04-28T04:23:52.478Z,13.20
2023-04-28T04:26:20.969Z,13.10
2023-04-28T04:28:48.702Z,13.10
2023-04-28T04:31:16.604Z,13.20
2023-04-28T04:33:44.383Z,13.20
2023-04-28T04:36:13.479Z,13.20
2023-04-28T04:38:41.450Z,13.20
2023-04-28T04:41:09.162Z,13.20
2023-04-28T04:43:36.917Z,13.10
2023-04-28T04:46:04.963Z,13.10
2023-04-28T04:48:32.761Z,13.10
2023-04-28T04:51:00.530Z,13.10
2023-04-28T04:53:29.663Z,13.20
2023-04-28T04:55:57.669Z,13.10
2023-04-28T04:58:25.625Z,13.20
2023-04-28T05:00:53.557Z,13.20
2023-04-28T05:03:21.871Z,13.20
2023-04-28T05:05:49.901Z,13.20
2023-04-28T05:08:17.706Z,13.20
2023-04-28T05:10:46.783Z,13.20
2023-04-28T05:13:14.678Z,13.20
2023-04-28T05:15:42.504Z,13.10
2023-04-28T05:18:11.472Z,13.00
2023-04-28T05:20:39.291Z,12.90
2023-04-28T05:23:07.274Z,12.90
2023-04-28T05:25:35.114Z,12.90
2023-04-28T05:28:07.451Z,12.80
2023-04-28T05:30:35.376Z,12.80
2023-04-28T05:33:03.221Z,12.60
2023-04-28T05:35:32.023Z,12.60
2023-04-28T05:37:59.936Z,12.60
2023-04-28T05:40:28.802Z,12.50
2023-04-28T05:42:56.720Z,12.50
2023-04-28T05:45:26.303Z,12.50
2023-04-28T05:47:54.678Z,12.40
2023-04-28T05:50:22.669Z,12.40
2023-04-28T05:52:50.460Z,12.40
2023-04-28T05:55:18.399Z,12.40
2023-04-28T05:57:52.896Z,12.40
2023-04-28T06:00:21.749Z,12.50
2023-04-28T06:02:51.039Z,12.50
2023-04-28T06:05:19.405Z,12.50
2023-04-28T06:07:49.969Z,12.50
2023-04-28T06:10:18.209Z,12.40
2023-04-28T06:12:46.226Z,12.50
2023-04-28T06:15:14.027Z,12.50
2023-04-28T06:17:42.460Z,12.40
2023-04-28T06:20:13.928Z,12.40
2023-04-28T06:22:41.916Z,12.30
2023-04-28T06:25:10.567Z,12.30
2023-04-28T06:27:38.342Z,12.30
2023-04-28T06:30:07.301Z,12.20
2023-04-28T06:32:35.075Z,12.20
2023-04-28T06:37:36.465Z,12.30
2023-04-28T06:40:04.687Z,12.30
2023-04-28T06:42:32.491Z,12.30
2023-04-28T06:45:00.449Z,12.40
2023-04-28T06:47:28.251Z,12.40
2023-04-28T06:49:56.117Z,12.50
2023-04-28T06:52:33.396Z,12.50
2023-04-28T06:55:09.335Z,12.50
2023-04-28T06:57:37.785Z,12.40
2023-04-28T07:00:07.975Z,12.50
2023-04-28T07:02:36.838Z,12.40
2023-04-28T07:05:05.512Z,12.30
2023-04-28T07:07:33.418Z,12.30
2023-04-28T07:10:02.063Z,12.30
2023-04-28T07:12:31.267Z,12.30
2023-04-28T07:14:59.048Z,12.20
2023-04-28T07:17:26.962Z,12.10
2023-04-28T07:19:54.817Z,12.10
2023-04-28T07:22:22.812Z,12.10
2023-04-28T07:24:50.645Z,12.20
2023-04-28T07:27:18.540Z,12.20
2023-04-28T07:32:16.267Z,12.10
2023-04-28T07:34:44.311Z,12.10
2023-04-28T07:37:12.691Z,12.10
2023-04-28T07:39:41.674Z,12.10
2023-04-28T07:42:09.678Z,12.10
2023-04-28T07:44:37.641Z,12.10
2023-04-28T07:47:06.819Z,12.10
2023-04-28T07:49:34.720Z,12.10
2023-04-28T07:52:02.578Z,12.10
2023-04-28T07:56:58.984Z,12.20
2023-04-28T07:59:26.851Z,12.30
2023-04-28T08:01:54.747Z,12.30
2023-04-28T08:04:24.198Z,12.30
2023-04-28T08:06:52.517Z,12.30
2023-04-28T08:09:20.492Z,12.40
2023-04-28T08:11:48.352Z,12.50
2023-04-28T08:14:16.405Z,12.50
2023-04-28T08:16:45.749Z,12.50
2023-04-28T08:19:13.941Z,12.50
2023-04-28T08:21:43.124Z,15.20
2023-04-28T08:24:11.288Z,12.80
2023-04-28T08:26:39.768Z,12.80
2023-04-28T08:29:07.564Z,12.80
2023-04-28T08:31:35.389Z,12.90
2023-04-28T08:34:03.304Z,12.80
2023-04-28T08:36:32.585Z,12.80
2023-04-28T08:39:03.342Z,12.90
2023-04-28T08:41:33.915Z,12.90
2023-04-28T08:44:02.417Z,12.90
2023-04-28T08:46:30.957Z,12.90
2023-04-28T08:49:02.315Z,12.90
2023-04-28T08:51:35.808Z,12.90
2023-04-28T08:56:39.995Z,12.90
2023-04-28T08:59:08.102Z,12.90
2023-04-28T09:01:36.832Z,12.90
2023-04-28T09:04:04.809Z,12.90
2023-04-28T09:06:35.820Z,13.20
2023-04-28T09:09:25.470Z,13.00
2023-04-28T09:11:55.391Z,13.00
2023-04-28T09:14:23.674Z,13.10
2023-04-28T09:16:51.845Z,13.10
2023-04-28T09:19:20.053Z,13.20
2023-04-28T09:21:49.910Z,13.20
2023-04-28T09:24:36.152Z,13.20
2023-04-28T09:29:33.669Z,13.10
2023-04-28T09:32:18.600Z,13.10
2023-04-28T09:34:48.626Z,13.20
2023-04-28T09:37:17.781Z,13.30
2023-04-28T09:39:49.553Z,13.30
2023-04-28T09:42:35.007Z,13.40
2023-04-28T09:45:03.972Z,13.30
2023-04-28T09:47:33.395Z,13.40
2023-04-28T09:50:03.224Z,13.50
2023-04-28T09:52:31.012Z,13.50
2023-04-28T09:55:03.673Z,13.50
2023-04-28T09:57:33.460Z,13.60
2023-04-28T10:00:02.135Z,13.70
2023-04-28T10:05:02.362Z,13.70
2023-04-28T10:07:35.594Z,13.70
2023-04-28T10:10:05.500Z,13.70
2023-04-28T10:12:34.719Z,13.90
2023-04-28T10:15:03.220Z,14.00
2023-04-28T10:17:31.201Z,14.00
2023-04-28T10:19:59.077Z,14.00
2023-04-28T10:22:47.807Z,14.20
2023-04-28T10:25:27.564Z,14.30
2023-04-28T10:27:56.042Z,14.40
2023-04-28T10:30:28.785Z,14.40
2023-04-28T10:33:26.361Z,14.50
2023-04-28T10:43:41.828Z,15.10
2023-04-28T10:46:16.580Z,15.20
2023-04-28T10:49:01.456Z,15.20
2023-04-28T10:51:34.798Z,15.40
2023-04-28T10:54:10.471Z,15.50
2023-04-28T10:56:42.081Z,15.60
2023-04-28T10:59:28.502Z,15.70
2023-04-28T11:04:25.062Z,15.70
2023-04-28T11:07:11.250Z,15.70
2023-04-28T11:09:49.805Z,15.70
2023-04-28T11:12:19.213Z,15.90
2023-04-28T11:14:49.017Z,16.00
2023-04-28T11:17:19.374Z,16.10
2023-04-28T11:19:48.445Z,16.20
2023-04-28T11:22:17.836Z,16.30
2023-04-28T11:24:57.860Z,16.20
2023-04-28T11:27:27.758Z,16.20
2023-04-28T11:29:55.663Z,16.20
2023-04-28T11:32:29.311Z,16.40
2023-04-28T11:34:57.369Z,16.40
2023-04-28T11:37:25.412Z,16.40
2023-04-28T11:39:53.477Z,16.20
2023-04-28T11:42:21.564Z,16.20
2023-04-28T11:44:55.272Z,16.30
2023-04-28T11:47:33.502Z,16.40
2023-04-28T11:50:03.192Z,16.50
2023-04-28T11:52:31.390Z,16.70
2023-04-28T11:57:31.251Z,16.90
2023-04-28T12:00:19.518Z,17.10
2023-04-28T12:02:47.915Z,17.30
2023-04-28T12:05:15.988Z,17.40
2023-04-28T12:07:45.211Z,17.50
2023-04-28T12:10:16.026Z,17.50
2023-04-28T12:12:52.565Z,17.50
2023-04-28T12:15:24.728Z,17.70
2023-04-28T12:17:52.663Z,17.50
2023-04-28T12:20:38.003Z,17.60
2023-04-28T12:23:07.332Z,17.60
2023-04-28T12:25:43.894Z,17.70
2023-04-28T12:28:11.945Z,17.90
2023-04-28T12:30:42.419Z,18.00
2023-04-28T12:33:24.368Z,18.00
2023-04-28T12:35:52.327Z,18.00
2023-04-28T12:38:20.130Z,18.00
2023-04-28T12:40:47.938Z,17.90
2023-04-28T12:43:15.748Z,17.90
2023-04-28T12:45:44.910Z,18.00
2023-04-28T12:48:12.756Z,18.00
2023-04-28T12:50:40.584Z,18.00
2023-04-28T12:53:08.384Z,18.20
2023-04-28T12:55:36.392Z,18.30
2023-04-28T12:58:04.154Z,18.50
2023-04-28T13:00:32.119Z,18.50
2023-04-28T13:03:01.653Z,18.50
2023-04-28T13:05:30.119Z,18.50
2023-04-28T13:07:58.033Z,18.40
2023-04-28T13:10:26.613Z,18.20
2023-04-28T13:12:54.460Z,18.20
2023-04-28T13:15:22.969Z,18.30
2023-04-28T13:17:50.962Z,18.50
2023-04-28T13:20:20.325Z,18.50
2023-04-28T13:22:48.099Z,18.60
2023-04-28T13:25:16.152Z,18.80
2023-04-28T13:27:44.092Z,19.00
2023-04-28T13:30:13.274Z,19.00
2023-04-28T13:32:41.102Z,19.00
2023-04-28T13:35:09.901Z,19.10
2023-04-28T13:37:42.594Z,19.20
2023-04-28T13:40:12.189Z,19.10
2023-04-28T13:42:39.948Z,19.00
2023-04-28T13:45:08.681Z,19.00
2023-04-28T13:47:36.624Z,18.80
2023-04-28T13:50:04.634Z,18.80
2023-04-28T13:52:32.433Z,18.60
2023-04-28T13:55:01.746Z,18.50
2023-04-28T13:57:29.724Z,18.40
2023-04-28T13:59:57.505Z,18.30
2023-04-28T14:04:55.330Z,18.10
2023-04-28T14:07:23.277Z,18.00
2023-04-28T14:09:51.128Z,18.20
2023-04-28T14:12:21.404Z,18.30
2023-04-28T14:14:49.708Z,18.30
2023-04-28T14:17:17.656Z,18.40
2023-04-28T14:19:45.636Z,18.40
2023-04-28T14:22:13.561Z,18.40
2023-04-28T14:27:32.987Z,18.30
2023-04-28T14:30:01.037Z,18.10
2023-04-28T14:32:29.163Z,18.10
2023-04-28T14:34:57.476Z,18.10
2023-04-28T14:37:25.729Z,18.10
2023-04-28T14:39:53.763Z,18.20
2023-04-28T14:42:22.720Z,18.20
2023-04-28T14:44:53.949Z,18.30
2023-04-28T14:47:22.432Z,18.30
2023-04-28T14:49:50.321Z,18.50
2023-04-28T14:52:18.127Z,18.70
2023-04-28T14:54:46.262Z,18.80
2023-04-28T14:57:14.681Z,19.00
2023-04-28T14:59:42.536Z,19.00
2023-04-28T15:04:40.359Z,19.10
2023-04-28T15:07:09.250Z,19.10
2023-04-28T15:09:37.050Z,19.00
2023-04-28T15:12:05.340Z,18.80
2023-04-28T15:14:33.549Z,18.90
2023-04-28T15:17:03.818Z,18.80
2023-04-28T15:19:33.016Z,18.80
2023-04-28T15:22:01.050Z,18.80
2023-04-28T15:24:29.067Z,18.70
2023-04-28T15:26:57.016Z,18.60
2023-04-28T15:29:40.909Z,18.50
2023-04-28T15:32:08.893Z,18.50
2023-04-28T15:34:38.442Z,18.50
2023-04-28T15:37:33.749Z,18.60
2023-04-28T15:40:02.068Z,18.50
2023-04-28T15:42:29.992Z,18.50
2023-04-28T15:44:57.843Z,18.50
2023-04-28T15:47:25.667Z,18.50
2023-04-28T15:49:54.719Z,18.50
2023-04-28T15:52:23.701Z,18.50
2023-04-28T15:54:51.799Z,18.50
2023-04-28T15:57:19.668Z,18.50
2023-04-28T15:59:47.592Z,18.50
2023-04-28T16:02:15.442Z,18.50
2023-04-28T16:04:43.515Z,18.50
2023-04-28T16:07:12.762Z,18.50
2023-04-28T16:09:40.611Z,18.50
2023-04-28T16:12:08.496Z,18.50
2023-04-28T16:14:36.658Z,18.40
2023-04-28T16:17:04.533Z,18.40
2023-04-28T16:19:32.661Z,18.40
2023-04-28T16:22:01.412Z,18.40
2023-04-28T16:24:32.400Z,18.50
2023-04-28T16:27:00.248Z,18.50
2023-04-28T16:29:28.085Z,17.80
2023-04-28T16:31:56.396Z,18.40
2023-04-28T16:34:24.177Z,18.50
2023-04-28T16:36:52.511Z,18.50
2023-04-28T16:39:20.365Z,18.50
2023-04-28T16:41:49.732Z,18.50
2023-04-28T16:44:17.509Z,18.50
2023-04-28T16:46:45.333Z,18.60
2023-04-28T16:49:13.365Z,18.60
2023-04-28T16:51:41.114Z,18.50
2023-04-28T16:54:08.873Z,18.60
2023-04-28T16:56:38.894Z,18.60
2023-04-28T16:59:07.995Z,18.80
2023-04-28T17:01:35.837Z,19.10
2023-04-28T17:04:06.805Z,19.30
2023-04-28T17:06:34.717Z,19.50
2023-04-28T17:09:04.226Z,19.80
2023-04-28T17:11:32.187Z,20.10
2023-04-28T17:14:00.224Z,20.40
2023-04-28T17:16:32.142Z,20.70
2023-04-28T17:18:59.974Z,20.90
2023-04-28T17:21:29.025Z,20.70
2023-04-28T17:23:57.560Z,20.30
2023-04-28T17:26:25.737Z,20.30
2023-04-28T17:28:55.459Z,20.30
2023-04-28T17:31:23.344Z,20.30
2023-04-28T17:33:53.328Z,20.00
2023-04-28T17:36:23.152Z,19.90
2023-04-28T17:38:52.305Z,20.10
2023-04-28T17:41:20.385Z,19.80
2023-04-28T17:43:48.177Z,20.40
2023-04-28T17:46:16.125Z,20.20
2023-04-28T17:48:43.969Z,20.10
2023-04-28T17:51:13.164Z,19.90
2023-04-28T17:53:42.425Z,19.70
2023-04-28T17:56:10.821Z,19.40
2023-04-28T17:58:38.714Z,19.20
2023-04-28T18:01:08.093Z,18.90
2023-04-28T18:03:37.787Z,18.90
2023-04-28T18:06:07.815Z,19.10
2023-04-28T18:08:37.443Z,19.20
2023-04-28T18:11:06.647Z,19.20
2023-04-28T18:13:34.744Z,19.10
2023-04-28T18:16:04.459Z,19.10
2023-04-28T18:18:35.348Z,19.10
2023-04-28T18:21:03.947Z,19.10
2023-04-28T18:23:31.951Z,19.10
2023-04-28T18:26:01.167Z,19.00
2023-04-28T18:28:29.037Z,18.70
2023-04-28T18:30:55.819Z,18.50
2023-04-28T18:33:28.520Z,18.30
2023-04-28T18:36:00.834Z,18.30
2023-04-28T18:38:28.593Z,18.30
2023-04-28T18:40:57.002Z,18.20
2023-04-28T18:43:27.892Z,18.20
2023-04-28T18:45:55.954Z,18.10
2023-04-28T18:48:24.325Z,18.10
2023-04-28T18:50:53.864Z,18.10
2023-04-28T18:53:21.664Z,18.10
2023-04-28T18:55:49.915Z,18.10
2023-04-28T18:58:17.775Z,18.00
2023-04-28T19:00:46.987Z,18.00
2023-04-28T19:03:15.904Z,17.90
2023-04-28T19:05:44.107Z,17.90
2023-04-28T19:08:12.198Z,17.80
2023-04-28T19:10:39.987Z,17.70
2023-04-28T19:13:08.089Z,17.70
2023-04-28T19:15:35.992Z,17.40
2023-04-28T19:20:34.228Z,17.50
2023-04-28T19:23:04.291Z,17.40
2023-04-28T19:25:33.734Z,17.50
2023-04-28T19:28:01.760Z,17.50
2023-04-28T19:30:32.145Z,17.40
2023-04-28T19:33:00.092Z,17.40
2023-04-28T19:35:29.502Z,17.40
2023-04-28T19:37:57.282Z,17.30
2023-04-28T19:40:26.295Z,17.20
2023-04-28T19:42:55.420Z,17.30
2023-04-28T19:45:24.888Z,17.30
2023-04-28T19:47:55.492Z,17.30
2023-04-28T19:50:23.392Z,17.20
2023-04-28T19:52:52.516Z,17.20
2023-04-28T19:55:21.300Z,17.10
2023-04-28T19:57:49.114Z,17.00
2023-04-28T20:00:18.649Z,16.80
2023-04-28T20:02:46.566Z,16.80
2023-04-28T20:05:14.944Z,16.80
2023-04-28T20:07:42.886Z,16.80
2023-04-28T20:10:13.811Z,16.80
2023-04-28T20:12:42.143Z,16.70
2023-04-28T20:15:10.692Z,16.80
2023-04-28T20:17:38.668Z,16.80
2023-04-28T20:20:07.549Z,16.80
2023-04-28T20:22:36.222Z,16.70
2023-04-28T20:25:05.947Z,13.20
2023-04-28T20:27:35.423Z,16.60
2023-04-28T20:30:04.169Z,16.60
2023-04-28T20:32:32.030Z,16.60
2023-04-28T20:35:00.582Z,16.60
2023-04-28T20:37:28.314Z,16.60
2023-04-28T20:39:56.236Z,16.60
2023-04-28T20:42:24.313Z,16.60
2023-04-28T20:44:53.387Z,16.60
2023-04-28T20:47:21.181Z,16.60
2023-04-28T20:49:49.026Z,16.60
2023-04-28T20:52:18.318Z,16.60
2023-04-28T20:54:46.886Z,16.60
2023-04-28T20:57:14.704Z,16.50
2023-04-28T20:59:42.508Z,16.50
2023-04-28T21:02:11.941Z,16.50
2023-04-28T21:04:39.756Z,16.50
2023-04-28T21:07:07.541Z,16.50
2023-04-28T21:09:35.899Z,16.60
2023-04-28T21:12:04.305Z,16.60
2023-04-28T21:19:33.263Z,16.60
2023-04-28T21:22:01.995Z,16.50
2023-04-28T21:24:29.856Z,16.50
2023-04-28T21:29:27.511Z,16.50
2023-04-28T21:31:55.361Z,16.50
2023-04-28T21:34:23.264Z,16.40
2023-04-28T21:36:52.544Z,16.40
2023-04-28T21:39:21.669Z,16.40
2023-04-28T21:41:49.425Z,16.40
2023-04-28T21:44:17.243Z,16.40
2023-04-28T21:46:45.153Z,16.40
2023-04-28T21:49:13.080Z,16.30
2023-04-28T21:51:42.161Z,16.30
2023-04-28T21:54:12.690Z,16.30
2023-04-28T21:56:40.627Z,16.30
2023-04-28T21:59:08.466Z,16.30
2023-04-28T22:01:36.505Z,16.30
2023-04-28T22:04:07.291Z,16.30
2023-04-28T22:06:35.348Z,16.30
2023-04-28T22:09:03.837Z,16.30
2023-04-28T22:14:07.619Z,16.30
2023-04-28T22:16:35.886Z,16.20
2023-04-28T22:19:03.754Z,16.20
2023-04-28T22:21:32.161Z,16.20
2023-04-28T22:23:59.917Z,16.20
2023-04-28T22:26:28.399Z,16.20
2023-04-28T22:28:57.737Z,16.20
2023-04-28T22:31:25.710Z,16.20
2023-04-28T22:33:53.729Z,16.10
2023-04-28T22:36:21.925Z,16.10
2023-04-28T22:38:49.816Z,16.10
2023-04-28T22:41:17.596Z,15.20
2023-04-28T22:43:45.419Z,16.10
2023-04-28T22:46:14.753Z,16.10
2023-04-28T22:48:42.744Z,16.10
2023-04-28T22:51:10.636Z,16.10
2023-04-28T22:53:38.390Z,16.10
2023-04-28T22:56:06.592Z,16.10
2023-04-28T22:58:34.475Z,16.00
2023-04-28T23:01:04.197Z,16.00
2023-04-28T23:03:33.693Z,16.00
2023-04-28T23:06:01.993Z,15.80
2023-04-28T23:08:29.735Z,15.80
2023-04-28T23:10:57.665Z,15.80
2023-04-28T23:13:25.633Z,15.80
2023-04-28T23:15:53.500Z,15.70
2023-04-28T23:18:21.359Z,15.60
2023-04-28T23:20:50.560Z,15.60
2023-04-28T23:23:18.497Z,15.30
2023-04-28T23:25:46.284Z,15.30
2023-04-28T23:28:14.061Z,15.30
2023-04-28T23:30:41.823Z,15.30
2023-04-28T23:33:10.879Z,15.30
2023-04-28T23:35:38.796Z,15.30
2023-04-28T23:38:08.252Z,15.40
2023-04-28T23:40:36.031Z,15.40
2023-04-28T23:43:04.127Z,15.50
2023-04-28T23:45:32.087Z,15.50
2023-04-28T23:48:00.039Z,15.50
2023-04-28T23:50:28.948Z,15.60
2023-04-28T23:52:56.710Z,15.50
2023-04-28T23:55:25.802Z,15.50
2023-04-28T23:57:53.579Z,15.50
